Flight Track Log - Related Links

Times and Time Zones

All times are in EDT time to prevent confusion due to time zone crossing. See the OPT732 flight status page for this flight to view local times or setup timezone preferences in your user account.


Time Position Orientation Groundspeed Altitude Reporting Facility
EDT Latitude Longitude Course Direction KTS MPH feet Rate Location/Type
Wed 04:11:04 PM 44.8333 -93.4833 270° West 170 196 1,800  Level Minneapolis TRACON
Wed 04:11:52 PM 44.8333 -93.5500 270° West 209 241 3,600 1,517 Climbing Minneapolis TRACON
Wed 04:12:31 PM 44.8525 -93.6014 298° West 207 238 4,000 297 Climbing Minneapolis Center
Wed 04:13:33 PM 44.8756 -93.6814 292° West 220 253 4,100 871 Climbing Minneapolis Center
Wed 04:14:35 PM 44.8997 -93.7697 291° West 240 276 5,800 1,742 Climbing Minneapolis Center
Wed 04:15:37 PM 44.9169 -93.8631 285° West 247 284 7,700 1,548 Climbing Minneapolis Center
Wed 04:16:39 PM 44.9308 -93.9617 281° West 258 297 9,000 2,129 Climbing Minneapolis Center
Wed 04:17:41 PM 44.9461 -94.0681 282° West 276 318 12,100 2,585 Climbing Minneapolis Center
Wed 04:18:42 PM 44.9742 -94.1733 291° West 289 333 14,300 2,293 Climbing Minneapolis Center
Wed 04:19:44 PM 45.0086 -94.3083 290° West 306 352 16,800 2,081 Climbing Minneapolis Center
Wed 04:20:46 PM 45.0389 -94.4225 291° West 311 358 18,600 2,081 Climbing Minneapolis Center
Wed 04:21:48 PM 45.0683 -94.5381 290° West 314 361 21,100 2,516 Climbing Minneapolis Center
Wed 04:22:50 PM 45.1050 -94.6769 291° West 331 381 23,800 2,371 Climbing Minneapolis Center
Wed 04:23:52 PM 45.1386 -94.8069 290° West 345 397 26,000 2,177 Climbing Minneapolis Center
Wed 04:24:54 PM 45.1731 -94.9406 290° West 358 412 28,300 2,032 Climbing Minneapolis Center
Wed 04:25:56 PM 45.2089 -95.0817 290° West 374 430 30,200 2,226 Climbing Minneapolis Center
Wed 04:26:58 PM 45.2469 -95.2300 290° West 393 452 32,900 2,226 Climbing Minneapolis Center
Wed 04:28:00 PM 45.2853 -95.3786 290° West 400 460 34,800 1,984 Climbing Minneapolis Center
Wed 04:29:02 PM 45.3325 -95.5658 290° West 417 480 37,000 1,790 Climbing Minneapolis Center
Wed 04:30:04 PM 45.3639 -95.6928 289° West 423 487 38,500 1,694 Climbing Minneapolis Center
Wed 04:31:06 PM 45.4111 -95.8819 290° West 426 490 40,500 1,597 Climbing Minneapolis Center
Wed 04:32:08 PM 45.4494 -96.0378 289° West 421 484 41,800 1,200 Climbing Minneapolis Center
Wed 04:33:11 PM 45.4867 -96.1936 289° West 419 482 43,000 576 Climbing Minneapolis Center
Wed 04:34:13 PM 45.5331 -96.3833 289° West 425 489 43,000 48 Level Minneapolis Center
Wed 04:35:15 PM 45.5664 -96.5514 286° West 440 506 43,100 435 Climbing Minneapolis Center
Wed 04:36:17 PM 45.5994 -96.7206 286° West 444 511 43,900 774 Climbing Minneapolis Center
Wed 04:37:19 PM 45.6317 -96.8872 286° West 439 505 44,700 532 Climbing Minneapolis Center
Wed 04:38:21 PM 45.6631 -97.0547 285° West 439 505 45,000 145 Climbing Minneapolis Center
Wed 04:39:23 PM 45.7008 -97.2592 285° West 444 511 45,000  Level Minneapolis Center
Wed 04:40:25 PM 45.7336 -97.4311 285° West 449 517 45,000  Level Minneapolis Center
Wed 04:41:27 PM 45.7661 -97.6064 285° West 455 524 45,000  Level Minneapolis Center
Wed 04:42:29 PM 45.7989 -97.7819 285° West 457 526 45,000  Level Minneapolis Center
Wed 04:43:31 PM 45.8303 -97.9528 285° West 450 518 45,000  Level Minneapolis Center
Wed 04:44:33 PM 45.8633 -98.1328 285° West 446 513 45,000  Level Minneapolis Center
Wed 04:45:35 PM 45.8956 -98.3064 285° West 449 517 45,000  Level Minneapolis Center
Wed 04:46:38 PM 45.9325 -98.5158 284° West 452 520 45,000  Level Minneapolis Center
Wed 04:47:40 PM 45.9633 -98.6922 284° West 455 524 45,000  Level Minneapolis Center
Wed 04:48:42 PM 45.9939 -98.8703 284° West 458 527 45,000  Level Minneapolis Center
Wed 04:49:44 PM 46.0242 -99.0483 284° West 460 529 45,000  Level Minneapolis Center
Wed 04:50:46 PM 46.0547 -99.2294 284° West 464 534 45,000  Level Minneapolis Center
Wed 04:51:48 PM 46.0856 -99.4108 284° West 467 537 45,000  Level Minneapolis Center
Wed 04:52:50 PM 46.1206 -99.6258 283° West 463 533 45,000  Level Minneapolis Center
Wed 04:53:52 PM 46.1506 -99.8033 284° West 461 531 45,000  Level Minneapolis Center
Wed 04:54:54 PM 46.1803 -99.9836 283° West 462 532 45,000  Level Minneapolis Center
Wed 04:55:56 PM 46.2092 -100.1653 283° West 464 534 45,000  Level Minneapolis Center
Wed 04:56:58 PM 46.2375 -100.3472 283° West 466 536 45,000  Level Minneapolis Center
Wed 04:58:00 PM 46.2661 -100.5325 283° West 469 540 45,000  Level Minneapolis Center
Wed 04:59:02 PM 46.2994 -100.7472 283° West 464 534 45,000  Level Minneapolis Center
Wed 05:00:05 PM 46.3272 -100.9300 282° West 464 534 45,000  Level Minneapolis Center
Wed 05:01:07 PM 46.3561 -101.1131 283° West 466 536 45,000  Level Minneapolis Center
Wed 05:02:09 PM 46.3842 -101.2989 282° West 470 541 45,000  Level Minneapolis Center
Wed 05:03:11 PM 46.4114 -101.4825 282° West 470 541 45,000  Level Minneapolis Center
Wed 05:04:13 PM 46.4439 -101.7025 282° West 467 537 45,000  Level Minneapolis Center
Wed 05:05:15 PM 46.4706 -101.8700 283° West 468 539 45,000  Level Minneapolis Center
Wed 05:06:17 PM 46.4958 -102.0544 281° West 467 537 45,000  Level Minneapolis Center
Wed 05:07:19 PM 46.5236 -102.2347 283° West 463 533 45,000  Level Minneapolis Center
Wed 05:08:21 PM 46.5536 -102.4556 281° West 464 534 45,000  Level Minneapolis Center
Wed 05:09:23 PM 46.5789 -102.6378 281° West 462 532 45,000  Level Minneapolis Center
Wed 05:10:25 PM 46.6042 -102.8197 281° West 461 531 45,000  Level Minneapolis Center
Wed 05:11:32 PM 46.6267 -103.0036 280° West 460 529 45,000  Level Salt Lake Center
Wed 05:12:33 PM 46.6497 -103.1867 280° West 459 528 45,000  Level Salt Lake Center
Wed 05:13:35 PM 46.6783 -103.4033 281° West 457 526 45,000  Level Salt Lake Center
Wed 05:14:37 PM 46.7008 -103.5836 280° West 455 524 45,000  Level Salt Lake Center
Wed 05:15:38 PM 46.7242 -103.7639 281° West 454 522 45,000  Level Salt Lake Center
Wed 05:16:40 PM 46.7467 -103.9436 280° West 453 521 45,000  Level Salt Lake Center
Wed 05:17:41 PM 46.7686 -104.1228 280° West 450 518 45,000  Level Salt Lake Center
Wed 05:18:43 PM 46.7908 -104.3058 280° West 454 522 45,000  Level Salt Lake Center
Wed 05:19:45 PM 46.8122 -104.4853 280° West 453 521 45,000 -49 Level Salt Lake Center
Wed 05:20:46 PM 46.8342 -104.6689 280° West 454 522 44,900  Descending Salt Lake Center
Wed 05:21:48 PM 46.8589 -104.8867 280° West 455 524 45,000 48 Climbing Salt Lake Center
Wed 05:22:50 PM 46.8797 -105.0694 280° West 456 525 45,000  Level Salt Lake Center
Wed 05:23:51 PM 46.9014 -105.2542 280° West 460 529 45,000 -49 Level Salt Lake Center
Wed 05:24:53 PM 46.9225 -105.4400 280° West 461 531 44,900  Descending Salt Lake Center
Wed 05:25:54 PM 46.9422 -105.6206 279° West 455 524 45,000  Climbing Salt Lake Center
Wed 05:26:56 PM 46.9633 -105.8047 280° West 457 526 44,900  Descending Salt Lake Center
Wed 05:27:58 PM 46.9833 -105.9867 279° West 456 525 45,000 48 Climbing Salt Lake Center
Wed 05:29:00 PM 47.0028 -106.1683 279° West 454 522 45,000  Level Salt Lake Center
Wed 05:30:01 PM 47.0250 -106.3731 279° West 454 522 45,000  Level Salt Lake Center
Wed 05:31:03 PM 47.0450 -106.5778 278° West 456 525 45,000  Level Salt Lake Center
Wed 05:32:05 PM 47.0617 -106.7531 278° West 455 524 45,000  Level Salt Lake Center
Wed 05:33:06 PM 47.0822 -106.9603 278° West 459 528 45,000  Level Salt Lake Center
Wed 05:34:08 PM 47.0997 -107.1383 278° West 460 529 45,000  Level Salt Lake Center
Wed 05:35:10 PM 47.1161 -107.3164 278° West 461 531 45,000  Level Salt Lake Center
Wed 05:36:11 PM 47.1358 -107.5233 278° West 459 528 45,000  Level Salt Lake Center
Wed 05:37:13 PM 47.1511 -107.7028 277° West 461 531 45,000  Level Salt Lake Center
Wed 05:38:15 PM 47.1697 -107.9125 278° West 464 534 45,000  Level Salt Lake Center
Wed 05:39:17 PM 47.1864 -108.0914 278° West 464 534 45,000  Level Salt Lake Center
Wed 05:40:19 PM 47.2036 -108.3008 277° West 463 533 45,000  Level Salt Lake Center
Wed 05:41:20 PM 47.2186 -108.4831 277° West 466 536 45,000  Level Salt Lake Center
Wed 05:42:22 PM 47.2325 -108.6542 277° West 467 537 45,000  Level Salt Lake Center
Wed 05:43:23 PM 47.2503 -108.8808 277° West 465 535 45,000  Level Salt Lake Center
Wed 05:44:25 PM 47.2650 -109.0686 277° West 464 534 45,000  Level Salt Lake Center
Wed 05:45:27 PM 47.2853 -109.2575 279° West 467 537 45,000  Level Salt Lake Center
Wed 05:46:29 PM 47.3317 -109.4336 291° West 465 535 45,000  Level Salt Lake Center
Wed 05:47:30 PM 47.3417 -109.6228 275° West 465 535 45,000  Level Salt Lake Center
Wed 05:48:32 PM 47.3525 -109.8153 275° West 469 540 45,000  Level Salt Lake Center
Wed 05:49:34 PM 47.3650 -110.0056 276° West 469 540 45,000  Level Salt Lake Center
Wed 05:50:35 PM 47.3778 -110.2331 275° West 465 535 45,000  Level Salt Lake Center
Wed 05:51:37 PM 47.3889 -110.4236 275° West 467 537 45,000 -48 Level Salt Lake Center
Wed 05:52:39 PM 47.3992 -110.6142 275° West 467 537 44,900  Descending Salt Lake Center
Wed 05:53:40 PM 47.4094 -110.8072 275° West 470 541 45,000 49 Climbing Salt Lake Center
Wed 05:54:42 PM 47.4197 -111.0006 275° West 471 542 45,000  Level Salt Lake Center
Wed 05:55:44 PM 47.4294 -111.1947 274° West 470 541 45,000  Level Salt Lake Center
Wed 05:56:46 PM 47.4378 -111.3903 274° West 470 541 45,000  Level Salt Lake Center
Wed 05:57:47 PM 47.4475 -111.5853 274° West 469 540 45,000 -49 Level Salt Lake Center
Wed 05:58:49 PM 47.4558 -111.7769 274° West 467 537 44,900  Descending Salt Lake Center
Wed 05:59:51 PM 47.4642 -111.9681 274° West 466 536 45,000  Climbing Salt Lake Center
Wed 06:00:52 PM 47.4733 -112.1983 273° West 467 537 44,900 -49 Descending Salt Lake Center
Wed 06:01:54 PM 47.4803 -112.3922 273° West 472 543 44,900 48 Level Salt Lake Center
Wed 06:02:56 PM 47.4883 -112.5825 274° West 468 539 45,000 48 Climbing Salt Lake Center
Wed 06:03:58 PM 47.4950 -112.7736 273° West 466 536 45,000  Level Salt Lake Center
Wed 06:04:59 PM 47.5033 -112.9608 274° West 465 535 45,000  Level Salt Lake Center
Wed 06:06:01 PM 47.5100 -113.1500 273° West 463 533 45,000  Level Salt Lake Center
Wed 06:07:03 PM 47.5158 -113.3392 273° West 461 531 45,000  Level Salt Lake Center
Wed 06:08:05 PM 47.5208 -113.5658 272° West 459 528 45,000  Level Salt Lake Center
Wed 06:09:06 PM 47.5264 -113.7542 273° West 458 527 45,000  Level Salt Lake Center
Wed 06:10:08 PM 47.5311 -113.9425 272° West 458 527 45,000  Level Salt Lake Center
Wed 06:11:10 PM 47.5356 -114.1317 272° West 458 527 45,000  Level Salt Lake Center
Wed 06:12:11 PM 47.5403 -114.3222 272° West 460 529 45,000  Level Salt Lake Center
Wed 06:13:13 PM 47.5439 -114.5128 272° West 462 532 45,000  Level Salt Lake Center
Wed 06:13:50 PM 47.5467 -114.6286 272° West 462 532 45,000 -61 Level Seattle Center
Wed 06:14:51 PM 47.5497 -114.8192 271° West 461 531 44,900  Descending Seattle Center
Wed 06:15:52 PM 47.5531 -115.0100 272° West 462 532 45,000 49 Climbing Seattle Center
Wed 06:16:53 PM 47.5561 -115.1994 271° West 461 531 45,000  Level Seattle Center
Wed 06:17:54 PM 47.5594 -115.3897 272° West 462 532 45,000  Level Seattle Center
Wed 06:18:55 PM 47.5608 -115.5822 271° West 465 535 45,000  Level Seattle Center
Wed 06:19:56 PM 47.5633 -115.7981 271° West 465 535 45,000  Level Seattle Center
Wed 06:20:57 PM 47.5636 -115.9914 270° West 468 539 45,000  Level Seattle Center
Wed 06:21:58 PM 47.5650 -116.1853 271° West 471 542 45,000  Level Seattle Center
Wed 06:22:59 PM 47.5661 -116.3783 271° West 472 543 45,000  Level Seattle Center
Wed 06:24:00 PM 47.5669 -116.5714 270° West 470 541 45,000  Level Seattle Center
Wed 06:25:01 PM 47.5675 -116.7631 270° West 467 537 45,000  Level Seattle Center
Wed 06:26:02 PM 47.5692 -116.9675 271° West 467 537 45,000  Level Seattle Center
Wed 06:27:03 PM 47.5675 -117.1600 269° West 466 536 45,000  Level Seattle Center
Wed 06:28:04 PM 47.5664 -117.3558 270° West 467 537 45,000  Level Seattle Center
Wed 06:29:05 PM 47.5658 -117.5472 270° West 467 537 45,000 -49 Level Seattle Center
Wed 06:30:06 PM 47.5747 -117.7344 274° West 457 526 44,900  Descending Seattle Center
Wed 06:31:07 PM 47.5931 -117.9203 278° West 456 525 45,000  Climbing Seattle Center
Wed 06:32:08 PM 47.6103 -118.1061 278° West 457 526 44,900 -49 Descending Seattle Center
Wed 06:33:09 PM 47.6264 -118.2917 277° West 456 525 44,900  Level Seattle Center
Wed 06:34:09 PM 47.6428 -118.4775 278° West 456 525 44,900 50 Level Seattle Center
Wed 06:35:10 PM 47.6636 -118.7003 278° West 457 526 45,000 49 Climbing Seattle Center
Wed 06:36:11 PM 47.6797 -118.8850 277° West 454 522 45,000 -49 Level Seattle Center
Wed 06:37:12 PM 47.6947 -119.0703 277° West 454 522 44,900 -49 Descending Seattle Center
Wed 06:38:13 PM 47.7106 -119.2519 277° West 447 514 44,900 49 Level Seattle Center
Wed 06:39:14 PM 47.7239 -119.4314 276° West 439 505 45,000 49 Climbing Seattle Center
Wed 06:40:15 PM 47.7383 -119.6072 277° West 433 498 45,000  Level Seattle Center
Wed 06:41:16 PM 47.7511 -119.7831 276° West 429 494 45,000  Level Seattle Center
Wed 06:42:17 PM 47.7647 -119.9575 277° West 426 490 45,000  Level Seattle Center
Wed 06:43:17 PM 47.7775 -120.1308 276° West 425 489 45,000 -50 Level Seattle Center
Wed 06:44:18 PM 47.7911 -120.3042 277° West 425 489 44,900 -98 Descending Seattle Center
Wed 06:45:19 PM 47.8042 -120.4772 276° West 424 488 44,800 -1,967 Descending Seattle Center
Wed 06:46:20 PM 47.8150 -120.6469 275° West 415 478 40,900 -4,820 Descending Seattle Center
Wed 06:47:21 PM 47.8250 -120.8083 275° West 401 461 35,000 -6,197 Descending Seattle Center
Wed 06:48:22 PM 47.8392 -120.9661 278° West 382 440 28,300 -6,443 Descending Seattle Center
Wed 06:49:23 PM 47.8508 -121.1469 276° West 370 426 21,900 -5,322 Descending Seattle Center
Wed 06:50:17 PM 47.8583 -121.2633 276° West 304 350 18,100 -3,529 Descending Seattle Center
Wed 06:50:48 PM 47.8622 -121.3208 276° West 294 338 16,900 -2,824 Descending Seattle Center
Wed 06:51:25 PM 47.8658 -121.3936 274° West 297 342 14,900 -3,224 Descending Seattle Center
Wed 06:51:55 PM 47.8706 -121.4556 277° West 275 316 13,300 -2,656 Descending Seattle Center
Wed 06:52:26 PM 47.8733 -121.5000 275° West 264 304 12,200 -2,239 Descending Seattle Center
Wed 06:53:02 PM 47.8781 -121.5706 276° West 261 300 10,800 -2,066 Descending Seattle Center
Wed 06:53:27 PM 47.8803 -121.6111 275° West 272 313 10,100 -787 Descending Seattle Center
Wed 06:54:03 PM 47.8811 -121.6947 271° West 277 319 10,000 -197 Descending Seattle Center
Wed 06:54:28 PM 47.8708 -121.7214 240° Southwest 276 318 9,900 -667 Descending Seattle Center
Wed 06:54:57 PM 47.8397 -121.7681 225° Southwest 276 318 9,400 -787 Descending Seattle Center
Wed 06:55:29 PM 47.8150 -121.7994 220° Southwest 277 319 9,100 -716 Descending Seattle Center
Wed 06:56:04 PM 47.7689 -121.8478 215° Southwest 283 326 8,600 -689 Descending Seattle Center
Wed 06:56:30 PM 47.7508 -121.8622 208° Southwest 281 323 8,400 -689 Descending Seattle Center
Wed 06:57:05 PM 47.7006 -121.9028 208° Southwest 284 327 7,900 -689 Descending Seattle Center
Wed 06:57:31 PM 47.6808 -121.9147 202° Southwest 283 326 7,700 -885 Descending Seattle Center
Wed 06:58:06 PM 47.6258 -121.9414 198° South 277 319 7,000 -885 Descending Seattle Center
Wed 06:58:32 PM 47.5942 -121.9589 200° South 276 318 6,800 -689 Descending Seattle Center
Wed 06:59:07 PM 47.5569 -121.9769 198° South 261 300 6,300 -787 Descending Seattle Center
Wed 06:59:33 PM 47.5272 -121.9925 199° South 257 296 6,000 -787 Descending Seattle Center
Wed 07:00:08 PM 47.4881 -122.0119 199° South 237 273 5,500 -800 Descending Seattle Center
Wed 07:00:33 PM 47.4681 -122.0231 201° Southwest 227 261 5,200 -787 Descending Seattle Center
Wed 07:01:09 PM 47.4356 -122.0414 201° Southwest 194 223 4,700 -774 Descending Seattle Center
Wed 07:01:35 PM 47.4150 -122.0503 196° South 206 237 4,400 -545 Descending Seattle Center
Wed 07:02:04 PM 47.3861 -122.0656 200° South 194 223 4,200 -500 Descending Seattle Center
Wed 07:02:35 PM 47.3664 -122.0803 207° Southwest 191 220 3,900 -1,100 Descending Seattle Center
Wed 07:03:04 PM 47.3422 -122.1031 213° Southwest 180 207 3,100 -1,475 Descending Seattle Center
Wed 07:03:36 PM 47.3433 -122.1353 273° West 194 223 2,400 -1,082 Descending Seattle Center
Wed 07:04:05 PM 47.3669 -122.1647 320° Northwest 199 229 2,000 -393 Descending Seattle Center
Wed 07:04:37 PM 47.3831 -122.1786 330° Northwest 180 207 2,000  Level Seattle Center
Wed 07:05:06 PM 47.4047 -122.1994 327° Northwest 155 178 2,000  Level Seattle Center
Wed 07:05:38 PM 47.4219 -122.2122 333° Northwest 165 190 2,000 -98 Level Seattle Center
Wed 07:06:07 PM 47.4439 -122.2303 331° Northwest 147 169 1,900 -393 Descending Seattle Center
Wed 07:06:39 PM 47.4558 -122.2406 330° Northwest 130 150 1,600 -764 Descending Seattle Center
Wed 07:07:02 PM 47.4719 -122.2539 331° Northwest 128 147 1,200 -885 Descending Seattle Center
Wed 07:07:40 PM 47.4942 -122.2731 330° Northwest 134 154 700 -787 Descending Seattle Center
Wed 07:08:03 PM 47.5036 -122.2825 326° Northwest 131 151 400 -783 Descending Seattle Center

Login

Don't have an account? Register now (free) for customized features, flight alerts, and more!